sensor_id;sensor_type;location;lat;lon;timestamp;P1;durP1;ratioP1;P2;durP2;ratioP2
33357;SDS011;19717;42.614;23.418;2023-05-29T00:01:00;1.15;;;1.15;;
33357;SDS011;19717;42.614;23.418;2023-05-29T00:03:26;1.13;;;1.10;;
33357;SDS011;19717;42.614;23.418;2023-05-29T00:05:52;1.50;;;1.40;;
33357;SDS011;19717;42.614;23.418;2023-05-29T00:08:18;1.35;;;1.25;;
33357;SDS011;19717;42.614;23.418;2023-05-29T00:10:44;2.42;;;1.00;;
33357;SDS011;19717;42.614;23.418;2023-05-29T00:13:10;1.10;;;1.10;;
33357;SDS011;19717;42.614;23.418;2023-05-29T00:15:36;1.20;;;1.20;;
33357;SDS011;19717;42.614;23.418;2023-05-29T00:18:02;1.65;;;1.20;;
33357;SDS011;19717;42.614;23.418;2023-05-29T00:20:28;1.50;;;1.40;;
33357;SDS011;19717;42.614;23.418;2023-05-29T00:22:54;1.45;;;1.30;;
33357;SDS011;19717;42.614;23.418;2023-05-29T00:25:20;1.00;;;1.00;;
33357;SDS011;19717;42.614;23.418;2023-05-29T00:27:46;2.25;;;1.20;;
33357;SDS011;19717;42.614;23.418;2023-05-29T00:30:12;1.98;;;1.10;;
33357;SDS011;19717;42.614;23.418;2023-05-29T00:32:39;1.50;;;1.10;;
33357;SDS011;19717;42.614;23.418;2023-05-29T00:35:05;2.45;;;1.20;;
33357;SDS011;19717;42.614;23.418;2023-05-29T00:37:32;1.23;;;1.13;;
33357;SDS011;19717;42.614;23.418;2023-05-29T00:39:58;1.65;;;1.30;;
33357;SDS011;19717;42.614;23.418;2023-05-29T00:42:24;1.20;;;1.20;;
33357;SDS011;19717;42.614;23.418;2023-05-29T00:44:50;1.10;;;1.10;;
33357;SDS011;19717;42.614;23.418;2023-05-29T00:47:16;2.38;;;1.35;;
33357;SDS011;19717;42.614;23.418;2023-05-29T00:49:42;1.00;;;1.00;;
33357;SDS011;19717;42.614;23.418;2023-05-29T00:52:08;2.13;;;1.10;;
33357;SDS011;19717;42.614;23.418;2023-05-29T00:54:35;1.85;;;1.10;;
33357;SDS011;19717;42.614;23.418;2023-05-29T00:57:01;2.50;;;1.73;;
33357;SDS011;19717;42.614;23.418;2023-05-29T00:59:31;1.30;;;1.20;;
33357;SDS011;19717;42.614;23.418;2023-05-29T01:01:58;1.55;;;1.23;;
33357;SDS011;19717;42.614;23.418;2023-05-29T01:04:25;3.53;;;1.10;;
33357;SDS011;19717;42.614;23.418;2023-05-29T01:06:52;1.20;;;1.20;;
33357;SDS011;19717;42.614;23.418;2023-05-29T01:09:18;1.20;;;1.20;;
33357;SDS011;19717;42.614;23.418;2023-05-29T01:22:19;1.20;;;1.20;;
33357;SDS011;19717;42.614;23.418;2023-05-29T01:24:58;2.17;;;1.50;;
33357;SDS011;19717;42.614;23.418;2023-05-29T01:27:31;1.65;;;1.30;;
33357;SDS011;19717;42.614;23.418;2023-05-29T01:29:58;1.17;;;1.17;;
33357;SDS011;19717;42.614;23.418;2023-05-29T01:32:25;1.17;;;1.10;;
33357;SDS011;19717;42.614;23.418;2023-05-29T01:34:51;1.20;;;1.10;;
33357;SDS011;19717;42.614;23.418;2023-05-29T01:37:17;1.52;;;1.20;;
33357;SDS011;19717;42.614;23.418;2023-05-29T01:39:43;1.00;;;1.00;;
33357;SDS011;19717;42.614;23.418;2023-05-29T01:42:09;1.00;;;1.00;;
33357;SDS011;19717;42.614;23.418;2023-05-29T01:44:35;1.27;;;1.20;;
33357;SDS011;19717;42.614;23.418;2023-05-29T01:47:02;1.20;;;1.20;;
33357;SDS011;19717;42.614;23.418;2023-05-29T01:49:29;1.05;;;1.02;;
33357;SDS011;19717;42.614;23.418;2023-05-29T01:51:55;1.58;;;1.20;;
33357;SDS011;19717;42.614;23.418;2023-05-29T01:54:21;1.02;;;1.02;;
33357;SDS011;19717;42.614;23.418;2023-05-29T01:56:47;1.10;;;1.10;;
33357;SDS011;19717;42.614;23.418;2023-05-29T01:59:15;1.48;;;1.30;;
33357;SDS011;19717;42.614;23.418;2023-05-29T02:01:41;1.23;;;1.20;;
33357;SDS011;19717;42.614;23.418;2023-05-29T02:04:07;2.72;;;1.30;;
33357;SDS011;19717;42.614;23.418;2023-05-29T02:06:33;1.30;;;1.20;;
33357;SDS011;19717;42.614;23.418;2023-05-29T02:08:59;1.17;;;1.17;;
33357;SDS011;19717;42.614;23.418;2023-05-29T02:11:25;1.20;;;1.20;;
33357;SDS011;19717;42.614;23.418;2023-05-29T02:13:52;1.80;;;1.20;;
33357;SDS011;19717;42.614;23.418;2023-05-29T02:16:18;2.33;;;1.40;;
33357;SDS011;19717;42.614;23.418;2023-05-29T02:18:45;1.58;;;1.48;;
33357;SDS011;19717;42.614;23.418;2023-05-29T02:21:11;1.52;;;1.20;;
33357;SDS011;19717;42.614;23.418;2023-05-29T02:23:38;2.25;;;1.50;;
33357;SDS011;19717;42.614;23.418;2023-05-29T02:26:04;1.20;;;1.10;;
33357;SDS011;19717;42.614;23.418;2023-05-29T02:28:30;1.15;;;1.15;;
33357;SDS011;19717;42.614;23.418;2023-05-29T02:30:56;1.83;;;1.70;;
33357;SDS011;19717;42.614;23.418;2023-05-29T02:33:22;2.17;;;1.50;;
33357;SDS011;19717;42.614;23.418;2023-05-29T02:35:48;1.63;;;1.52;;
33357;SDS011;19717;42.614;23.418;2023-05-29T02:38:14;1.88;;;1.50;;
33357;SDS011;19717;42.614;23.418;2023-05-29T02:40:40;1.42;;;1.33;;
33357;SDS011;19717;42.614;23.418;2023-05-29T02:43:07;1.95;;;1.58;;
33357;SDS011;19717;42.614;23.418;2023-05-29T02:45:33;1.65;;;1.55;;
33357;SDS011;19717;42.614;23.418;2023-05-29T02:47:59;1.27;;;1.25;;
33357;SDS011;19717;42.614;23.418;2023-05-29T02:50:25;2.47;;;1.30;;
33357;SDS011;19717;42.614;23.418;2023-05-29T02:52:52;1.30;;;1.30;;
33357;SDS011;19717;42.614;23.418;2023-05-29T02:55:19;1.52;;;1.35;;
33357;SDS011;19717;42.614;23.418;2023-05-29T02:57:45;2.25;;;1.40;;
33357;SDS011;19717;42.614;23.418;2023-05-29T03:00:13;1.63;;;1.40;;
33357;SDS011;19717;42.614;23.418;2023-05-29T03:02:39;1.10;;;1.10;;
33357;SDS011;19717;42.614;23.418;2023-05-29T03:05:06;1.40;;;1.30;;
33357;SDS011;19717;42.614;23.418;2023-05-29T03:07:32;1.48;;;1.38;;
33357;SDS011;19717;42.614;23.418;2023-05-29T03:09:58;1.50;;;1.35;;
33357;SDS011;19717;42.614;23.418;2023-05-29T03:12:24;1.92;;;1.30;;
33357;SDS011;19717;42.614;23.418;2023-05-29T03:14:52;1.20;;;1.20;;
33357;SDS011;19717;42.614;23.418;2023-05-29T03:17:18;1.33;;;1.33;;
33357;SDS011;19717;42.614;23.418;2023-05-29T03:19:46;4.22;;;1.40;;
33357;SDS011;19717;42.614;23.418;2023-05-29T03:22:12;1.50;;;1.40;;
33357;SDS011;19717;42.614;23.418;2023-05-29T03:24:38;1.23;;;1.20;;
33357;SDS011;19717;42.614;23.418;2023-05-29T03:27:04;1.55;;;1.52;;
33357;SDS011;19717;42.614;23.418;2023-05-29T03:29:33;1.48;;;1.38;;
33357;SDS011;19717;42.614;23.418;2023-05-29T03:31:59;1.77;;;1.67;;
33357;SDS011;19717;42.614;23.418;2023-05-29T03:34:25;1.52;;;1.42;;
33357;SDS011;19717;42.614;23.418;2023-05-29T03:36:52;1.45;;;1.35;;
33357;SDS011;19717;42.614;23.418;2023-05-29T03:39:18;1.50;;;1.40;;
33357;SDS011;19717;42.614;23.418;2023-05-29T03:41:45;1.50;;;1.40;;
33357;SDS011;19717;42.614;23.418;2023-05-29T03:44:11;2.58;;;1.50;;
33357;SDS011;19717;42.614;23.418;2023-05-29T03:46:37;1.70;;;1.60;;
33357;SDS011;19717;42.614;23.418;2023-05-29T03:49:03;2.90;;;1.77;;
33357;SDS011;19717;42.614;23.418;2023-05-29T03:51:29;1.70;;;1.60;;
33357;SDS011;19717;42.614;23.418;2023-05-29T03:53:55;1.67;;;1.58;;
33357;SDS011;19717;42.614;23.418;2023-05-29T03:56:22;1.67;;;1.58;;
33357;SDS011;19717;42.614;23.418;2023-05-29T03:58:48;2.08;;;1.90;;
33357;SDS011;19717;42.614;23.418;2023-05-29T04:01:14;2.35;;;1.48;;
33357;SDS011;19717;42.614;23.418;2023-05-29T04:03:40;1.70;;;1.60;;
33357;SDS011;19717;42.614;23.418;2023-05-29T04:06:06;1.65;;;1.55;;
33357;SDS011;19717;42.614;23.418;2023-05-29T04:08:33;1.63;;;1.52;;
33357;SDS011;19717;42.614;23.418;2023-05-29T04:10:59;1.90;;;1.80;;
33357;SDS011;19717;42.614;23.418;2023-05-29T04:13:26;1.90;;;1.80;;
33357;SDS011;19717;42.614;23.418;2023-05-29T04:15:52;2.20;;;2.00;;
33357;SDS011;19717;42.614;23.418;2023-05-29T04:18:19;1.80;;;1.70;;
33357;SDS011;19717;42.614;23.418;2023-05-29T04:20:45;1.77;;;1.67;;
33357;SDS011;19717;42.614;23.418;2023-05-29T04:23:12;1.75;;;1.50;;
33357;SDS011;19717;42.614;23.418;2023-05-29T04:25:39;1.50;;;1.40;;
33357;SDS011;19717;42.614;23.418;2023-05-29T04:28:05;1.25;;;1.25;;
33357;SDS011;19717;42.614;23.418;2023-05-29T04:30:31;2.00;;;1.30;;
33357;SDS011;19717;42.614;23.418;2023-05-29T04:32:58;1.88;;;1.35;;
33357;SDS011;19717;42.614;23.418;2023-05-29T04:35:24;1.40;;;1.30;;
33357;SDS011;19717;42.614;23.418;2023-05-29T04:37:53;1.27;;;1.27;;
33357;SDS011;19717;42.614;23.418;2023-05-29T04:40:19;1.35;;;1.30;;
33357;SDS011;19717;42.614;23.418;2023-05-29T04:42:45;2.22;;;1.40;;
33357;SDS011;19717;42.614;23.418;2023-05-29T04:45:11;2.15;;;1.40;;
33357;SDS011;19717;42.614;23.418;2023-05-29T04:47:37;1.58;;;1.48;;
33357;SDS011;19717;42.614;23.418;2023-05-29T04:52:36;1.67;;;1.20;;
33357;SDS011;19717;42.614;23.418;2023-05-29T04:55:02;1.20;;;1.10;;
33357;SDS011;19717;42.614;23.418;2023-05-29T04:57:28;1.45;;;1.40;;
33357;SDS011;19717;42.614;23.418;2023-05-29T04:59:54;1.40;;;1.30;;
33357;SDS011;19717;42.614;23.418;2023-05-29T05:02:21;1.40;;;1.30;;
33357;SDS011;19717;42.614;23.418;2023-05-29T05:04:47;1.40;;;1.30;;
33357;SDS011;19717;42.614;23.418;2023-05-29T05:07:13;1.30;;;1.20;;
33357;SDS011;19717;42.614;23.418;2023-05-29T05:09:41;1.40;;;1.23;;
33357;SDS011;19717;42.614;23.418;2023-05-29T05:12:07;1.30;;;1.20;;
33357;SDS011;19717;42.614;23.418;2023-05-29T05:14:34;1.40;;;1.30;;
33357;SDS011;19717;42.614;23.418;2023-05-29T05:17:00;1.92;;;1.40;;
33357;SDS011;19717;42.614;23.418;2023-05-29T05:19:26;1.40;;;1.30;;
33357;SDS011;19717;42.614;23.418;2023-05-29T05:21:52;1.45;;;1.35;;
33357;SDS011;19717;42.614;23.418;2023-05-29T05:24:18;1.52;;;1.42;;
33357;SDS011;19717;42.614;23.418;2023-05-29T05:26:44;1.30;;;1.20;;
33357;SDS011;19717;42.614;23.418;2023-05-29T05:29:10;2.00;;;1.30;;
33357;SDS011;19717;42.614;23.418;2023-05-29T05:31:36;1.63;;;1.52;;
33357;SDS011;19717;42.614;23.418;2023-05-29T05:34:02;1.50;;;1.40;;
33357;SDS011;19717;42.614;23.418;2023-05-29T05:36:28;1.10;;;1.10;;
33357;SDS011;19717;42.614;23.418;2023-05-29T05:38:56;1.35;;;1.33;;
33357;SDS011;19717;42.614;23.418;2023-05-29T05:41:22;1.10;;;1.10;;
33357;SDS011;19717;42.614;23.418;2023-05-29T05:43:48;1.25;;;1.15;;
33357;SDS011;19717;42.614;23.418;2023-05-29T05:46:14;1.10;;;1.10;;
33357;SDS011;19717;42.614;23.418;2023-05-29T05:48:42;1.25;;;1.15;;
33357;SDS011;19717;42.614;23.418;2023-05-29T05:51:08;1.20;;;1.10;;
33357;SDS011;19717;42.614;23.418;2023-05-29T05:53:35;1.20;;;1.17;;
33357;SDS011;19717;42.614;23.418;2023-05-29T05:56:01;0.93;;;0.90;;
33357;SDS011;19717;42.614;23.418;2023-05-29T05:58:28;1.10;;;1.00;;
33357;SDS011;19717;42.614;23.418;2023-05-29T06:00:54;0.90;;;0.90;;
33357;SDS011;19717;42.614;23.418;2023-05-29T06:03:20;1.00;;;1.00;;
33357;SDS011;19717;42.614;23.418;2023-05-29T06:05:46;1.00;;;1.00;;
33357;SDS011;19717;42.614;23.418;2023-05-29T06:08:12;1.10;;;1.10;;
33357;SDS011;19717;42.614;23.418;2023-05-29T06:10:38;4.63;;;1.30;;
33357;SDS011;19717;42.614;23.418;2023-05-29T06:13:04;1.20;;;1.10;;
33357;SDS011;19717;42.614;23.418;2023-05-29T06:15:30;1.02;;;1.00;;
33357;SDS011;19717;42.614;23.418;2023-05-29T06:17:56;1.08;;;1.08;;
33357;SDS011;19717;42.614;23.418;2023-05-29T06:20:22;1.05;;;1.05;;
33357;SDS011;19717;42.614;23.418;2023-05-29T06:22:51;2.63;;;1.60;;
33357;SDS011;19717;42.614;23.418;2023-05-29T06:25:17;2.00;;;1.77;;
33357;SDS011;19717;42.614;23.418;2023-05-29T06:27:43;2.08;;;1.88;;
33357;SDS011;19717;42.614;23.418;2023-05-29T06:30:10;1.95;;;1.67;;
33357;SDS011;19717;42.614;23.418;2023-05-29T06:32:36;3.22;;;1.75;;
33357;SDS011;19717;42.614;23.418;2023-05-29T06:35:02;1.50;;;1.40;;
33357;SDS011;19717;42.614;23.418;2023-05-29T06:37:29;1.40;;;1.30;;
33357;SDS011;19717;42.614;23.418;2023-05-29T06:39:55;1.27;;;1.17;;
33357;SDS011;19717;42.614;23.418;2023-05-29T06:42:21;1.35;;;1.27;;
33357;SDS011;19717;42.614;23.418;2023-05-29T06:44:47;2.25;;;1.20;;
33357;SDS011;19717;42.614;23.418;2023-05-29T06:47:13;1.48;;;1.05;;
33357;SDS011;19717;42.614;23.418;2023-05-29T06:49:39;1.60;;;1.20;;
33357;SDS011;19717;42.614;23.418;2023-05-29T06:52:05;1.40;;;1.30;;
33357;SDS011;19717;42.614;23.418;2023-05-29T06:54:32;1.35;;;1.17;;
33357;SDS011;19717;42.614;23.418;2023-05-29T06:56:58;2.47;;;1.67;;
33357;SDS011;19717;42.614;23.418;2023-05-29T06:59:24;3.25;;;1.30;;
33357;SDS011;19717;42.614;23.418;2023-05-29T07:01:50;1.42;;;1.33;;
33357;SDS011;19717;42.614;23.418;2023-05-29T07:04:16;1.10;;;1.10;;
33357;SDS011;19717;42.614;23.418;2023-05-29T07:06:42;1.70;;;1.60;;
33357;SDS011;19717;42.614;23.418;2023-05-29T07:09:08;1.10;;;1.10;;
33357;SDS011;19717;42.614;23.418;2023-05-29T07:11:34;0.90;;;0.90;;
33357;SDS011;19717;42.614;23.418;2023-05-29T07:14:00;0.85;;;0.70;;
33357;SDS011;19717;42.614;23.418;2023-05-29T07:16:26;1.63;;;0.90;;
33357;SDS011;19717;42.614;23.418;2023-05-29T07:18:52;1.05;;;1.00;;
33357;SDS011;19717;42.614;23.418;2023-05-29T07:21:18;0.75;;;0.75;;
33357;SDS011;19717;42.614;23.418;2023-05-29T07:23:45;0.77;;;0.77;;
33357;SDS011;19717;42.614;23.418;2023-05-29T07:26:11;0.70;;;0.70;;
33357;SDS011;19717;42.614;23.418;2023-05-29T07:28:37;0.70;;;0.70;;
33357;SDS011;19717;42.614;23.418;2023-05-29T07:31:03;0.70;;;0.70;;
33357;SDS011;19717;42.614;23.418;2023-05-29T07:33:29;0.70;;;0.70;;
33357;SDS011;19717;42.614;23.418;2023-05-29T07:35:55;0.50;;;0.50;;
33357;SDS011;19717;42.614;23.418;2023-05-29T07:38:22;0.73;;;0.60;;
33357;SDS011;19717;42.614;23.418;2023-05-29T07:40:48;0.60;;;0.60;;
33357;SDS011;19717;42.614;23.418;2023-05-29T07:43:15;0.70;;;0.70;;
33357;SDS011;19717;42.614;23.418;2023-05-29T07:45:41;0.70;;;0.70;;
33357;SDS011;19717;42.614;23.418;2023-05-29T07:48:07;0.50;;;0.50;;
33357;SDS011;19717;42.614;23.418;2023-05-29T07:50:33;0.57;;;0.57;;
33357;SDS011;19717;42.614;23.418;2023-05-29T07:53:00;3.15;;;0.75;;
33357;SDS011;19717;42.614;23.418;2023-05-29T07:55:26;0.88;;;0.60;;
33357;SDS011;19717;42.614;23.418;2023-05-29T07:57:52;0.85;;;0.57;;
33357;SDS011;19717;42.614;23.418;2023-05-29T08:00:18;0.60;;;0.60;;
33357;SDS011;19717;42.614;23.418;2023-05-29T08:02:44;0.60;;;0.60;;
33357;SDS011;19717;42.614;23.418;2023-05-29T08:05:10;0.60;;;0.60;;
33357;SDS011;19717;42.614;23.418;2023-05-29T08:07:37;0.57;;;0.57;;
33357;SDS011;19717;42.614;23.418;2023-05-29T08:10:04;0.88;;;0.63;;
33357;SDS011;19717;42.614;23.418;2023-05-29T08:12:31;0.70;;;0.70;;
33357;SDS011;19717;42.614;23.418;2023-05-29T08:14:59;0.65;;;0.60;;
33357;SDS011;19717;42.614;23.418;2023-05-29T08:17:25;0.50;;;0.50;;
33357;SDS011;19717;42.614;23.418;2023-05-29T08:19:51;0.60;;;0.60;;
33357;SDS011;19717;42.614;23.418;2023-05-29T08:22:17;1.02;;;0.70;;
33357;SDS011;19717;42.614;23.418;2023-05-29T08:24:43;0.57;;;0.57;;
33357;SDS011;19717;42.614;23.418;2023-05-29T08:27:09;0.93;;;0.70;;
33357;SDS011;19717;42.614;23.418;2023-05-29T08:29:35;0.70;;;0.70;;
33357;SDS011;19717;42.614;23.418;2023-05-29T08:32:03;0.60;;;0.60;;
33357;SDS011;19717;42.614;23.418;2023-05-29T08:34:29;0.57;;;0.57;;
33357;SDS011;19717;42.614;23.418;2023-05-29T08:36:55;0.95;;;0.60;;
33357;SDS011;19717;42.614;23.418;2023-05-29T08:39:21;0.60;;;0.60;;
33357;SDS011;19717;42.614;23.418;2023-05-29T08:41:57;1.45;;;0.73;;
33357;SDS011;19717;42.614;23.418;2023-05-29T08:44:26;0.60;;;0.60;;
33357;SDS011;19717;42.614;23.418;2023-05-29T08:46:55;0.55;;;0.55;;
33357;SDS011;19717;42.614;23.418;2023-05-29T08:49:21;0.60;;;0.60;;
33357;SDS011;19717;42.614;23.418;2023-05-29T08:51:49;0.50;;;0.50;;
33357;SDS011;19717;42.614;23.418;2023-05-29T08:54:18;0.52;;;0.52;;
33357;SDS011;19717;42.614;23.418;2023-05-29T08:56:44;0.63;;;0.63;;
33357;SDS011;19717;42.614;23.418;2023-05-29T08:59:10;0.60;;;0.60;;
33357;SDS011;19717;42.614;23.418;2023-05-29T09:01:37;0.63;;;0.60;;
33357;SDS011;19717;42.614;23.418;2023-05-29T09:04:04;0.70;;;0.70;;
33357;SDS011;19717;42.614;23.418;2023-05-29T09:06:30;0.60;;;0.60;;
33357;SDS011;19717;42.614;23.418;2023-05-29T09:08:56;1.70;;;0.70;;
33357;SDS011;19717;42.614;23.418;2023-05-29T09:11:23;0.60;;;0.60;;
33357;SDS011;19717;42.614;23.418;2023-05-29T09:13:49;0.63;;;0.63;;
33357;SDS011;19717;42.614;23.418;2023-05-29T09:16:18;0.50;;;0.50;;
33357;SDS011;19717;42.614;23.418;2023-05-29T09:18:45;0.63;;;0.60;;
33357;SDS011;19717;42.614;23.418;2023-05-29T09:21:24;0.70;;;0.70;;
33357;SDS011;19717;42.614;23.418;2023-05-29T09:23:54;0.70;;;0.70;;
33357;SDS011;19717;42.614;23.418;2023-05-29T09:26:21;1.25;;;0.68;;
33357;SDS011;19717;42.614;23.418;2023-05-29T09:28:50;0.65;;;0.60;;
33357;SDS011;19717;42.614;23.418;2023-05-29T09:31:16;1.05;;;0.70;;
33357;SDS011;19717;42.614;23.418;2023-05-29T09:33:48;0.70;;;0.70;;
33357;SDS011;19717;42.614;23.418;2023-05-29T09:36:22;0.50;;;0.50;;
33357;SDS011;19717;42.614;23.418;2023-05-29T09:38:48;0.75;;;0.55;;
33357;SDS011;19717;42.614;23.418;2023-05-29T09:41:21;0.55;;;0.55;;
33357;SDS011;19717;42.614;23.418;2023-05-29T09:43:49;0.68;;;0.68;;
33357;SDS011;19717;42.614;23.418;2023-05-29T09:46:15;0.57;;;0.57;;
33357;SDS011;19717;42.614;23.418;2023-05-29T09:48:45;0.52;;;0.52;;
33357;SDS011;19717;42.614;23.418;2023-05-29T09:51:19;0.57;;;0.55;;
33357;SDS011;19717;42.614;23.418;2023-05-29T09:53:47;0.52;;;0.52;;
33357;SDS011;19717;42.614;23.418;2023-05-29T09:56:13;1.30;;;0.50;;
33357;SDS011;19717;42.614;23.418;2023-05-29T09:58:42;0.60;;;0.60;;
33357;SDS011;19717;42.614;23.418;2023-05-29T10:01:13;0.50;;;0.50;;
33357;SDS011;19717;42.614;23.418;2023-05-29T10:03:42;0.60;;;0.60;;
33357;SDS011;19717;42.614;23.418;2023-05-29T10:06:12;0.63;;;0.57;;
33357;SDS011;19717;42.614;23.418;2023-05-29T10:08:42;0.52;;;0.52;;
33357;SDS011;19717;42.614;23.418;2023-05-29T10:11:14;0.60;;;0.60;;
33357;SDS011;19717;42.614;23.418;2023-05-29T10:13:41;0.50;;;0.50;;
33357;SDS011;19717;42.614;23.418;2023-05-29T10:16:13;0.52;;;0.52;;
33357;SDS011;19717;42.614;23.418;2023-05-29T10:18:44;1.02;;;0.70;;
33357;SDS011;19717;42.614;23.418;2023-05-29T10:21:11;0.73;;;0.50;;
33357;SDS011;19717;42.614;23.418;2023-05-29T10:23:38;0.95;;;0.60;;
33357;SDS011;19717;42.614;23.418;2023-05-29T10:26:12;0.63;;;0.60;;
33357;SDS011;19717;42.614;23.418;2023-05-29T10:28:39;0.63;;;0.50;;
33357;SDS011;19717;42.614;23.418;2023-05-29T10:31:12;0.60;;;0.60;;
33357;SDS011;19717;42.614;23.418;2023-05-29T10:36:17;0.60;;;0.60;;
33357;SDS011;19717;42.614;23.418;2023-05-29T10:38:46;0.60;;;0.60;;
33357;SDS011;19717;42.614;23.418;2023-05-29T10:43:53;0.60;;;0.60;;
33357;SDS011;19717;42.614;23.418;2023-05-29T10:46:19;0.60;;;0.50;;
33357;SDS011;19717;42.614;23.418;2023-05-29T10:48:45;2.22;;;0.75;;
33357;SDS011;19717;42.614;23.418;2023-05-29T10:51:25;0.52;;;0.52;;
33357;SDS011;19717;42.614;23.418;2023-05-29T10:53:51;1.52;;;0.60;;
33357;SDS011;19717;42.614;23.418;2023-05-29T10:56:24;0.65;;;0.50;;
33357;SDS011;19717;42.614;23.418;2023-05-29T10:58:54;6.82;;;1.00;;
33357;SDS011;19717;42.614;23.418;2023-05-29T11:01:21;10.57;;;1.95;;
33357;SDS011;19717;42.614;23.418;2023-05-29T11:03:48;0.50;;;0.50;;
33357;SDS011;19717;42.614;23.418;2023-05-29T11:06:20;1.27;;;0.50;;
33357;SDS011;19717;42.614;23.418;2023-05-29T11:08:54;1.20;;;0.50;;
33357;SDS011;19717;42.614;23.418;2023-05-29T11:13:52;0.57;;;0.57;;
33357;SDS011;19717;42.614;23.418;2023-05-29T11:18:54;0.50;;;0.50;;
33357;SDS011;19717;42.614;23.418;2023-05-29T11:24:05;0.60;;;0.60;;
33357;SDS011;19717;42.614;23.418;2023-05-29T11:26:36;0.50;;;0.50;;
33357;SDS011;19717;42.614;23.418;2023-05-29T11:29:03;0.50;;;0.50;;
33357;SDS011;19717;42.614;23.418;2023-05-29T11:31:32;0.50;;;0.50;;
33357;SDS011;19717;42.614;23.418;2023-05-29T11:34:00;7.03;;;1.17;;
33357;SDS011;19717;42.614;23.418;2023-05-29T11:36:28;0.60;;;0.60;;
33357;SDS011;19717;42.614;23.418;2023-05-29T11:38:56;0.50;;;0.50;;
33357;SDS011;19717;42.614;23.418;2023-05-29T11:41:22;0.50;;;0.50;;
33357;SDS011;19717;42.614;23.418;2023-05-29T11:44:01;0.55;;;0.55;;
33357;SDS011;19717;42.614;23.418;2023-05-29T11:46:27;0.80;;;0.60;;
33357;SDS011;19717;42.614;23.418;2023-05-29T11:49:00;0.60;;;0.60;;
33357;SDS011;19717;42.614;23.418;2023-05-29T11:51:27;0.63;;;0.63;;
33357;SDS011;19717;42.614;23.418;2023-05-29T11:53:53;0.70;;;0.70;;
33357;SDS011;19717;42.614;23.418;2023-05-29T11:56:29;0.60;;;0.60;;
33357;SDS011;19717;42.614;23.418;2023-05-29T11:58:56;0.60;;;0.60;;
33357;SDS011;19717;42.614;23.418;2023-05-29T12:01:24;0.60;;;0.60;;
33357;SDS011;19717;42.614;23.418;2023-05-29T12:03:51;0.60;;;0.60;;
33357;SDS011;19717;42.614;23.418;2023-05-29T12:06:33;0.60;;;0.60;;
33357;SDS011;19717;42.614;23.418;2023-05-29T12:09:00;0.70;;;0.70;;
33357;SDS011;19717;42.614;23.418;2023-05-29T12:11:29;0.75;;;0.75;;
33357;SDS011;19717;42.614;23.418;2023-05-29T12:13:56;0.60;;;0.57;;
33357;SDS011;19717;42.614;23.418;2023-05-29T12:16:22;0.93;;;0.70;;
33357;SDS011;19717;42.614;23.418;2023-05-29T12:18:49;0.60;;;0.60;;
33357;SDS011;19717;42.614;23.418;2023-05-29T12:21:15;1.13;;;0.70;;
33357;SDS011;19717;42.614;23.418;2023-05-29T12:23:41;0.73;;;0.73;;
33357;SDS011;19717;42.614;23.418;2023-05-29T12:26:07;0.63;;;0.60;;
33357;SDS011;19717;42.614;23.418;2023-05-29T12:28:34;0.88;;;0.70;;
33357;SDS011;19717;42.614;23.418;2023-05-29T12:31:00;0.70;;;0.70;;
33357;SDS011;19717;42.614;23.418;2023-05-29T12:33:33;0.60;;;0.60;;
33357;SDS011;19717;42.614;23.418;2023-05-29T12:36:06;0.55;;;0.52;;
33357;SDS011;19717;42.614;23.418;2023-05-29T12:38:32;0.55;;;0.55;;
33357;SDS011;19717;42.614;23.418;2023-05-29T12:40:58;2.70;;;0.77;;
33357;SDS011;19717;42.614;23.418;2023-05-29T12:43:24;0.95;;;0.68;;
33357;SDS011;19717;42.614;23.418;2023-05-29T12:45:54;0.80;;;0.68;;
33357;SDS011;19717;42.614;23.418;2023-05-29T12:48:25;0.50;;;0.50;;
33357;SDS011;19717;42.614;23.418;2023-05-29T12:50:51;0.60;;;0.60;;
33357;SDS011;19717;42.614;23.418;2023-05-29T12:53:17;0.60;;;0.60;;
33357;SDS011;19717;42.614;23.418;2023-05-29T12:55:44;0.57;;;0.50;;
33357;SDS011;19717;42.614;23.418;2023-05-29T12:58:14;0.50;;;0.50;;
33357;SDS011;19717;42.614;23.418;2023-05-29T13:00:45;0.60;;;0.60;;
33357;SDS011;19717;42.614;23.418;2023-05-29T13:03:11;0.60;;;0.52;;
33357;SDS011;19717;42.614;23.418;2023-05-29T13:05:38;0.70;;;0.70;;
33357;SDS011;19717;42.614;23.418;2023-05-29T13:08:04;0.77;;;0.60;;
33357;SDS011;19717;42.614;23.418;2023-05-29T13:10:32;0.65;;;0.65;;
33357;SDS011;19717;42.614;23.418;2023-05-29T13:12:59;0.65;;;0.65;;
33357;SDS011;19717;42.614;23.418;2023-05-29T13:15:25;0.80;;;0.80;;
33357;SDS011;19717;42.614;23.418;2023-05-29T13:17:52;1.23;;;0.80;;
33357;SDS011;19717;42.614;23.418;2023-05-29T13:20:18;0.70;;;0.70;;
33357;SDS011;19717;42.614;23.418;2023-05-29T13:22:45;0.70;;;0.70;;
33357;SDS011;19717;42.614;23.418;2023-05-29T13:25:12;0.65;;;0.65;;
33357;SDS011;19717;42.614;23.418;2023-05-29T13:27:39;0.60;;;0.60;;
33357;SDS011;19717;42.614;23.418;2023-05-29T13:30:06;0.90;;;0.90;;
33357;SDS011;19717;42.614;23.418;2023-05-29T13:32:33;1.15;;;0.90;;
33357;SDS011;19717;42.614;23.418;2023-05-29T13:34:59;0.70;;;0.70;;
33357;SDS011;19717;42.614;23.418;2023-05-29T13:37:25;1.25;;;0.85;;
33357;SDS011;19717;42.614;23.418;2023-05-29T13:39:52;1.35;;;0.70;;
33357;SDS011;19717;42.614;23.418;2023-05-29T13:42:19;1.30;;;0.77;;
33357;SDS011;19717;42.614;23.418;2023-05-29T13:44:47;1.02;;;0.90;;
33357;SDS011;19717;42.614;23.418;2023-05-29T13:47:13;0.93;;;0.70;;
33357;SDS011;19717;42.614;23.418;2023-05-29T13:49:39;1.98;;;0.70;;
33357;SDS011;19717;42.614;23.418;2023-05-29T13:52:06;0.70;;;0.70;;
33357;SDS011;19717;42.614;23.418;2023-05-29T13:54:32;0.68;;;0.68;;
33357;SDS011;19717;42.614;23.418;2023-05-29T13:57:04;2.13;;;0.90;;
33357;SDS011;19717;42.614;23.418;2023-05-29T13:59:31;1.42;;;0.88;;
33357;SDS011;19717;42.614;23.418;2023-05-29T14:01:57;2.22;;;0.90;;
33357;SDS011;19717;42.614;23.418;2023-05-29T14:04:23;0.77;;;0.77;;
33357;SDS011;19717;42.614;23.418;2023-05-29T14:06:50;1.00;;;0.90;;
33357;SDS011;19717;42.614;23.418;2023-05-29T14:09:16;0.95;;;0.70;;
33357;SDS011;19717;42.614;23.418;2023-05-29T14:11:47;0.70;;;0.70;;
33357;SDS011;19717;42.614;23.418;2023-05-29T14:14:13;0.77;;;0.77;;
33357;SDS011;19717;42.614;23.418;2023-05-29T14:16:40;1.88;;;0.90;;
33357;SDS011;19717;42.614;23.418;2023-05-29T14:19:06;0.80;;;0.80;;
33357;SDS011;19717;42.614;23.418;2023-05-29T14:21:33;1.42;;;0.98;;
33357;SDS011;19717;42.614;23.418;2023-05-29T14:24:00;0.80;;;0.80;;
33357;SDS011;19717;42.614;23.418;2023-05-29T14:26:27;1.27;;;0.80;;
33357;SDS011;19717;42.614;23.418;2023-05-29T14:28:53;0.95;;;0.90;;
33357;SDS011;19717;42.614;23.418;2023-05-29T14:31:19;0.65;;;0.60;;
33357;SDS011;19717;42.614;23.418;2023-05-29T14:33:45;0.65;;;0.65;;
33357;SDS011;19717;42.614;23.418;2023-05-29T14:36:11;0.70;;;0.70;;
33357;SDS011;19717;42.614;23.418;2023-05-29T14:38:37;0.68;;;0.65;;
33357;SDS011;19717;42.614;23.418;2023-05-29T14:41:04;0.57;;;0.57;;
33357;SDS011;19717;42.614;23.418;2023-05-29T14:43:31;0.50;;;0.50;;
33357;SDS011;19717;42.614;23.418;2023-05-29T14:45:57;0.57;;;0.50;;
33357;SDS011;19717;42.614;23.418;2023-05-29T14:48:23;0.60;;;0.60;;
33357;SDS011;19717;42.614;23.418;2023-05-29T14:50:49;0.50;;;0.50;;
33357;SDS011;19717;42.614;23.418;2023-05-29T14:53:15;0.77;;;0.60;;
33357;SDS011;19717;42.614;23.418;2023-05-29T14:55:42;0.50;;;0.50;;
33357;SDS011;19717;42.614;23.418;2023-05-29T14:58:08;0.70;;;0.70;;